CMA CGM La Boussole — A8FZ6 — position and weather

sailwx.info

Track history (hours):
 
Tides and Currents Weather Stations Pressure Air Temp Water Temp Dewpoint Dewpoint Depression Visibility Wind Speed Wind Dir Waves Ship Positions

CMA CGM La Boussole

Last reported at 2014-Aug-14 16:24 UTC. Time now 2014-Aug-22 17:44 UTC.
Position N 35°28' W 009°53'.
Warning: this ship's position is 8 days out of date.

Length 210.1 m; beam 30.2 m; draft 11.5 m.

Type: Ship. MMSI: 636090821.

Date/timePositionNaut miles runAvg speedWind from/ knotsBaromVisibWave heightAir tempDewpointWater temp
2014-Aug-14 16:24N 35°28' W 009°53'1916.1
2014-Aug-14 15:15N 35°31' W 009°31'1916.0
2014-Aug-14 14:04N 35°34' W 009°08'916.1
2014-Aug-14 13:32N 35°35' W 008°58'178 4.7
2014-Aug-13 00:05N 36°01' W 005°20'  
2014-Aug-10 18:33N 36°39' W 001°53'2713.3
2014-Aug-10 16:33N 36°56' W 001°28'1513.6
2014-Aug-10 15:29N 37°06' W 001°14'1314.0
2014-Aug-10 14:31N 37°15' W 001°02'1414.1
2014-Aug-10 13:33N 37°24' W 000°49'1413.8
2014-Aug-10 12:33N 37°33' W 000°36'3014.2
2014-Aug-10 10:25N 37°58' W 000°14'8511.7
2014-Aug-10 03:07N 39°23' W 000°14'5 9.3
2014-Aug-10 02:33N 39°26' W 000°19'1 0.5
2014-Aug-10 01:32N 39°27' W 000°19'0 0.0
2014-Aug-10 00:32N 39°27' W 000°19'0 0.0
2014-Aug-09 23:25N 39°27' W 000°19'0 0.0
2014-Aug-09 22:28N 39°27' W 000°19'0 0.0
2014-Aug-09 21:31N 39°27' W 000°19'0 0.0
2014-Aug-09 20:33N 39°27' W 000°19'0 0.0
2014-Aug-09 19:33N 39°27' W 000°19'0 0.0
2014-Aug-09 18:32N 39°27' W 000°19'0 0.0
2014-Aug-09 17:32N 39°27' W 000°19'0 0.0
2014-Aug-09 16:33N 39°27' W 000°19'0 0.0
2014-Aug-09 15:33N 39°27' W 000°19'0 0.0
2014-Aug-09 14:33N 39°27' W 000°19'0 0.0
2014-Aug-09 13:32N 39°27' W 000°19'0 0.0
2014-Aug-09 12:32N 39°27' W 000°19'0 0.0
2014-Aug-09 11:33N 39°27' W 000°19'2 1.9
2014-Aug-09 10:33N 39°25' W 000°18'2 2.4
2014-Aug-09 09:33N 39°26' W 000°14'6516.2
2014-Aug-09 05:31N 39°57' E 001°00'1717.4
2014-Aug-09 04:33N 40°11' E 001°12'1717.3
2014-Aug-09 03:33N 40°25' E 001°25'1817.8
2014-Aug-09 02:33N 40°40' E 001°38'1817.9
2014-Aug-09 01:34N 40°55' E 001°51'1817.5
2014-Aug-09 00:33N 41°09' E 002°04'1312.8
2014-Aug-08 23:33N 41°21' E 002°10'0 0.1
2014-Aug-08 22:28N 41°21' E 002°10'0 0.0
2014-Aug-08 21:33N 41°21' E 002°10'0 0.0
2014-Aug-08 20:27N 41°21' E 002°10'0 0.0
2014-Aug-08 18:26N 41°21' E 002°10'0 0.0
2014-Aug-08 15:25N 41°21' E 002°10'0 0.0
2014-Aug-08 13:24N 41°21' E 002°10'4 4.0
2014-Aug-08 12:27N 41°17' E 002°11'1515.4
2014-Aug-08 11:30N 41°21' E 002°30'1616.6
2014-Aug-08 10:33N 41°28' E 002°49'1717.3
2014-Aug-08 09:33N 41°37' E 003°08'1918.6
2014-Aug-08 08:33N 41°51' E 003°26'2020.2
2014-Aug-08 07:33N 42°06' E 003°43'2318.6
2014-Aug-08 06:20N 42°23' E 004°03'1519.2
2014-Aug-08 05:32N 42°35' E 004°16'1919.7
2014-Aug-08 04:33N 42°49' E 004°34'1818.5
2014-Aug-08 03:33N 43°03' E 004°51'1717.0
2014-Aug-08 02:34N 43°19' E 004°59'8 7.3
2014-Aug-08 01:31N 43°24' E 004°51'0 0.0
2014-Aug-08 00:34N 43°24' E 004°51'0 0.0
2014-Aug-07 23:33N 43°24' E 004°51'0 0.0
2014-Aug-07 22:33N 43°24' E 004°51'0 0.0
2014-Aug-07 21:32N 43°24' E 004°51'0 0.0
2014-Aug-07 20:29N 43°24' E 004°51'0 0.0
2014-Aug-07 19:31N 43°24' E 004°51'0 0.0
2014-Aug-07 18:31N 43°24' E 004°51'0 0.0
2014-Aug-07 17:34N 43°24' E 004°51'0 0.0
2014-Aug-07 16:33N 43°24' E 004°51'0 0.0
2014-Aug-07 15:33N 43°24' E 004°51'0 0.0
2014-Aug-07 14:32N 43°24' E 004°51'0 0.0
2014-Aug-07 13:32N 43°24' E 004°51'0 0.0
2014-Aug-07 12:33N 43°24' E 004°51'0 0.0
2014-Aug-07 11:31N 43°24' E 004°51'0 0.0
2014-Aug-07 10:33N 43°24' E 004°51'0 0.0
2014-Aug-07 09:33N 43°24' E 004°51'4 3.7
2014-Aug-07 08:33N 43°23' E 004°56'10 9.7
2014-Aug-07 07:34N 43°15' E 005°02'1716.8
2014-Aug-07 06:33N 43°05' E 005°21'1818.0
2014-Aug-07 05:33N 42°57' E 005°43'1818.0
2014-Aug-07 04:34N 42°50' E 006°05'1818.0
2014-Aug-07 03:33N 42°50' E 006°30'1918.9
2014-Aug-07 02:34N 43°01' E 006°50'1918.6
2014-Aug-07 01:33N 43°12' E 007°11'1817.9
2014-Aug-07 00:34N 43°23' E 007°30'1818.0
2014-Aug-06 23:33N 43°34' E 007°50'1918.6
2014-Aug-06 22:33N 43°45' E 008°11'1818.5
2014-Aug-06 21:34N 43°59' E 008°28'1818.1
2014-Aug-06 20:33N 44°11' E 008°46'1414.1
2014-Aug-06 19:34N 44°24' E 008°56'2 1.7
2014-Aug-06 18:33N 44°24' E 008°54'0 0.0
2014-Aug-06 17:33N 44°24' E 008°54'0 0.0
2014-Aug-06 16:32N 44°24' E 008°54'0 0.0
2014-Aug-06 15:32N 44°24' E 008°54'0 0.0
2014-Aug-06 14:32N 44°24' E 008°54'0 0.0
2014-Aug-06 13:31N 44°24' E 008°54'0 0.0
2014-Aug-06 12:31N 44°24' E 008°54'0 0.0
2014-Aug-06 11:33N 44°24' E 008°54'0 0.0
2014-Aug-06 10:33N 44°24' E 008°54'0 0.0
2014-Aug-06 09:29N 44°24' E 008°54'0 0.0
2014-Aug-06 08:29N 44°24' E 008°54'0 0.0
2014-Aug-06 07:29N 44°24' E 008°54'0 0.0
2014-Aug-06 06:28N 44°24' E 008°54'0 0.0
2014-Aug-06 05:28N 44°24' E 008°54'0 0.0
2014-Aug-06 04:33N 44°24' E 008°54'0 0.0
2014-Aug-06 03:33N 44°24' E 008°54'0 0.0
2014-Aug-06 02:32N 44°24' E 008°54'0 0.0
2014-Aug-06 01:33N 44°24' E 008°54'0 0.0
2014-Aug-06 00:32N 44°24' E 008°54'0 0.0
2014-Aug-05 23:32N 44°24' E 008°54'0 0.0
2014-Aug-05 22:32N 44°24' E 008°54'0 0.0
2014-Aug-05 21:32N 44°24' E 008°54'4 3.9
2014-Aug-05 20:33N 44°22' E 008°58'5 4.8
2014-Aug-05 19:34N 44°18' E 009°02'1817.8
2014-Aug-05 18:34N 44°04' E 009°17'1918.9
2014-Aug-05 17:33N 43°49' E 009°34'1919.0
2014-Aug-05 16:34N 43°35' E 009°51'1616.1
2014-Aug-05 15:33N 43°32' E 010°13'5 4.8
2014-Aug-05 14:33N 43°34' E 010°18'0 0.0
2014-Aug-05 13:32N 43°34' E 010°18'0 0.0
2014-Aug-05 12:28N 43°34' E 010°18'0 0.0
2014-Aug-05 11:31N 43°34' E 010°18'0 0.0
2014-Aug-05 10:33N 43°34' E 010°18'0 0.0
2014-Aug-05 09:30N 43°34' E 010°18'0 0.0
2014-Aug-05 08:32N 43°34' E 010°18'0 0.0
2014-Aug-05 07:32N 43°34' E 010°18'0 0.0
2014-Aug-05 06:29N 43°34' E 010°18'0 0.0
2014-Aug-05 05:31N 43°34' E 010°18'0 0.0
2014-Aug-05 04:31N 43°34' E 010°18'0 0.0
2014-Aug-05 03:33N 43°34' E 010°18'0 0.0
2014-Aug-05 02:30N 43°34' E 010°18'0 0.0
2014-Aug-05 01:32N 43°34' E 010°18'0 0.0
2014-Aug-05 00:32N 43°34' E 010°18'0 0.0
2014-Aug-04 23:32N 43°34' E 010°18'0 0.0
2014-Aug-04 22:31N 43°34' E 010°18'0 0.0
2014-Aug-04 21:31N 43°34' E 010°18'0 0.0
2014-Aug-04 20:33N 43°34' E 010°18'0 0.0
2014-Aug-04 19:33N 43°34' E 010°18'0 0.0
2014-Aug-04 18:32N 43°34' E 010°18'0 0.0
2014-Aug-04 17:32N 43°34' E 010°18'0 0.0
2014-Aug-04 16:29N 43°34' E 010°18'  
Track history (hours):
 
Tides and Currents Weather Stations Pressure Air Temp Water Temp Dewpoint Dewpoint Depression Visibility Wind Speed Wind Dir Waves Ship Positions

CMA CGM La Boussole

Last reported at 2014-Aug-14 16:24 UTC. Time now 2014-Aug-22 17:44 UTC.
Position N 35°28' W 009°53'.
Warning: this ship's position is 8 days out of date.

Length 210.1 m; beam 30.2 m; draft 11.5 m.

Type: Ship. MMSI: 636090821.

Date/timePositionNaut miles runAvg speedWind from/ knotsBaromVisibWave heightAir tempDewpointWater temp
2014-Aug-14 16:24N 35°28' W 009°53'1916.1
2014-Aug-14 15:15N 35°31' W 009°31'1916.0
2014-Aug-14 14:04N 35°34' W 009°08'916.1
2014-Aug-14 13:32N 35°35' W 008°58'178 4.7
2014-Aug-13 00:05N 36°01' W 005°20'  
2014-Aug-10 18:33N 36°39' W 001°53'2713.3
2014-Aug-10 16:33N 36°56' W 001°28'1513.6
2014-Aug-10 15:29N 37°06' W 001°14'1314.0
2014-Aug-10 14:31N 37°15' W 001°02'1414.1
2014-Aug-10 13:33N 37°24' W 000°49'1413.8
2014-Aug-10 12:33N 37°33' W 000°36'3014.2
2014-Aug-10 10:25N 37°58' W 000°14'8511.7
2014-Aug-10 03:07N 39°23' W 000°14'5 9.3
2014-Aug-10 02:33N 39°26' W 000°19'1 0.5
2014-Aug-10 01:32N 39°27' W 000°19'0 0.0
2014-Aug-10 00:32N 39°27' W 000°19'0 0.0
2014-Aug-09 23:25N 39°27' W 000°19'0 0.0
2014-Aug-09 22:28N 39°27' W 000°19'0 0.0
2014-Aug-09 21:31N 39°27' W 000°19'0 0.0
2014-Aug-09 20:33N 39°27' W 000°19'0 0.0
2014-Aug-09 19:33N 39°27' W 000°19'0 0.0
2014-Aug-09 18:32N 39°27' W 000°19'0 0.0
2014-Aug-09 17:32N 39°27' W 000°19'0 0.0
2014-Aug-09 16:33N 39°27' W 000°19'0 0.0
2014-Aug-09 15:33N 39°27' W 000°19'0 0.0
2014-Aug-09 14:33N 39°27' W 000°19'0 0.0
2014-Aug-09 13:32N 39°27' W 000°19'0 0.0
2014-Aug-09 12:32N 39°27' W 000°19'0 0.0
2014-Aug-09 11:33N 39°27' W 000°19'2 1.9
2014-Aug-09 10:33N 39°25' W 000°18'2 2.4
2014-Aug-09 09:33N 39°26' W 000°14'6516.2
2014-Aug-09 05:31N 39°57' E 001°00'1717.4
2014-Aug-09 04:33N 40°11' E 001°12'1717.3
2014-Aug-09 03:33N 40°25' E 001°25'1817.8
2014-Aug-09 02:33N 40°40' E 001°38'1817.9
2014-Aug-09 01:34N 40°55' E 001°51'1817.5
2014-Aug-09 00:33N 41°09' E 002°04'1312.8
2014-Aug-08 23:33N 41°21' E 002°10'0 0.1
2014-Aug-08 22:28N 41°21' E 002°10'0 0.0
2014-Aug-08 21:33N 41°21' E 002°10'0 0.0
2014-Aug-08 20:27N 41°21' E 002°10'0 0.0
2014-Aug-08 18:26N 41°21' E 002°10'0 0.0
2014-Aug-08 15:25N 41°21' E 002°10'0 0.0
2014-Aug-08 13:24N 41°21' E 002°10'4 4.0
2014-Aug-08 12:27N 41°17' E 002°11'1515.4
2014-Aug-08 11:30N 41°21' E 002°30'1616.6
2014-Aug-08 10:33N 41°28' E 002°49'1717.3
2014-Aug-08 09:33N 41°37' E 003°08'1918.6
2014-Aug-08 08:33N 41°51' E 003°26'2020.2
2014-Aug-08 07:33N 42°06' E 003°43'2318.6
2014-Aug-08 06:20N 42°23' E 004°03'1519.2
2014-Aug-08 05:32N 42°35' E 004°16'1919.7
2014-Aug-08 04:33N 42°49' E 004°34'1818.5
2014-Aug-08 03:33N 43°03' E 004°51'1717.0
2014-Aug-08 02:34N 43°19' E 004°59'8 7.3
2014-Aug-08 01:31N 43°24' E 004°51'0 0.0
2014-Aug-08 00:34N 43°24' E 004°51'0 0.0
2014-Aug-07 23:33N 43°24' E 004°51'0 0.0
2014-Aug-07 22:33N 43°24' E 004°51'0 0.0
2014-Aug-07 21:32N 43°24' E 004°51'0 0.0
2014-Aug-07 20:29N 43°24' E 004°51'0 0.0
2014-Aug-07 19:31N 43°24' E 004°51'0 0.0
2014-Aug-07 18:31N 43°24' E 004°51'0 0.0
2014-Aug-07 17:34N 43°24' E 004°51'0 0.0
2014-Aug-07 16:33N 43°24' E 004°51'0 0.0
2014-Aug-07 15:33N 43°24' E 004°51'0 0.0
2014-Aug-07 14:32N 43°24' E 004°51'0 0.0
2014-Aug-07 13:32N 43°24' E 004°51'0 0.0
2014-Aug-07 12:33N 43°24' E 004°51'0 0.0
2014-Aug-07 11:31N 43°24' E 004°51'0 0.0
2014-Aug-07 10:33N 43°24' E 004°51'0 0.0
2014-Aug-07 09:33N 43°24' E 004°51'4 3.7
2014-Aug-07 08:33N 43°23' E 004°56'10 9.7
2014-Aug-07 07:34N 43°15' E 005°02'1716.8
2014-Aug-07 06:33N 43°05' E 005°21'1818.0
2014-Aug-07 05:33N 42°57' E 005°43'1818.0
2014-Aug-07 04:34N 42°50' E 006°05'1818.0
2014-Aug-07 03:33N 42°50' E 006°30'1918.9
2014-Aug-07 02:34N 43°01' E 006°50'1918.6
2014-Aug-07 01:33N 43°12' E 007°11'1817.9
2014-Aug-07 00:34N 43°23' E 007°30'1818.0
2014-Aug-06 23:33N 43°34' E 007°50'1918.6
2014-Aug-06 22:33N 43°45' E 008°11'1818.5
2014-Aug-06 21:34N 43°59' E 008°28'1818.1
2014-Aug-06 20:33N 44°11' E 008°46'1414.1
2014-Aug-06 19:34N 44°24' E 008°56'2 1.7
2014-Aug-06 18:33N 44°24' E 008°54'0 0.0
2014-Aug-06 17:33N 44°24' E 008°54'0 0.0
2014-Aug-06 16:32N 44°24' E 008°54'0 0.0
2014-Aug-06 15:32N 44°24' E 008°54'0 0.0
2014-Aug-06 14:32N 44°24' E 008°54'0 0.0
2014-Aug-06 13:31N 44°24' E 008°54'0 0.0
2014-Aug-06 12:31N 44°24' E 008°54'0 0.0
2014-Aug-06 11:33N 44°24' E 008°54'0 0.0
2014-Aug-06 10:33N 44°24' E 008°54'0 0.0
2014-Aug-06 09:29N 44°24' E 008°54'0 0.0
2014-Aug-06 08:29N 44°24' E 008°54'0 0.0
2014-Aug-06 07:29N 44°24' E 008°54'0 0.0
2014-Aug-06 06:28N 44°24' E 008°54'0 0.0
2014-Aug-06 05:28N 44°24' E 008°54'0 0.0
2014-Aug-06 04:33N 44°24' E 008°54'0 0.0
2014-Aug-06 03:33N 44°24' E 008°54'0 0.0
2014-Aug-06 02:32N 44°24' E 008°54'0 0.0
2014-Aug-06 01:33N 44°24' E 008°54'0 0.0
2014-Aug-06 00:32N 44°24' E 008°54'0 0.0
2014-Aug-05 23:32N 44°24' E 008°54'0 0.0
2014-Aug-05 22:32N 44°24' E 008°54'0 0.0
2014-Aug-05 21:32N 44°24' E 008°54'4 3.9
2014-Aug-05 20:33N 44°22' E 008°58'5 4.8
2014-Aug-05 19:34N 44°18' E 009°02'1817.8
2014-Aug-05 18:34N 44°04' E 009°17'1918.9
2014-Aug-05 17:33N 43°49' E 009°34'1919.0
2014-Aug-05 16:34N 43°35' E 009°51'1616.1
2014-Aug-05 15:33N 43°32' E 010°13'5 4.8
2014-Aug-05 14:33N 43°34' E 010°18'0 0.0
2014-Aug-05 13:32N 43°34' E 010°18'0 0.0
2014-Aug-05 12:28N 43°34' E 010°18'0 0.0
2014-Aug-05 11:31N 43°34' E 010°18'0 0.0
2014-Aug-05 10:33N 43°34' E 010°18'0 0.0
2014-Aug-05 09:30N 43°34' E 010°18'0 0.0
2014-Aug-05 08:32N 43°34' E 010°18'0 0.0
2014-Aug-05 07:32N 43°34' E 010°18'0 0.0
2014-Aug-05 06:29N 43°34' E 010°18'0 0.0
2014-Aug-05 05:31N 43°34' E 010°18'0 0.0
2014-Aug-05 04:31N 43°34' E 010°18'0 0.0
2014-Aug-05 03:33N 43°34' E 010°18'0 0.0
2014-Aug-05 02:30N 43°34' E 010°18'0 0.0
2014-Aug-05 01:32N 43°34' E 010°18'0 0.0
2014-Aug-05 00:32N 43°34' E 010°18'0 0.0
2014-Aug-04 23:32N 43°34' E 010°18'0 0.0
2014-Aug-04 22:31N 43°34' E 010°18'0 0.0
2014-Aug-04 21:31N 43°34' E 010°18'0 0.0
2014-Aug-04 20:33N 43°34' E 010°18'0 0.0
2014-Aug-04 19:33N 43°34' E 010°18'0 0.0
2014-Aug-04 18:32N 43°34' E 010°18'0 0.0
2014-Aug-04 17:32N 43°34' E 010°18'0 0.0
2014-Aug-04 16:29N 43°34' E 010°18'  

Dump ship's entire track history